Terminal Aerodrome Forecast
Issued by NWS

Home | Current Version | Previous Version | Text Only | Print | Product List | Glossary Off
Versions: 1 2 3 4 5 6 7 8 9 10 11 12 13 14 15 16

311
FTUS43 KMPX 061732
TAFRNH
TAF
KRNH 061732Z 0618/0718 18010KT P6SM SCT009 BKN150
     FM062300 20012G18KT P6SM OVC110 WS020/27040KT
     FM070900 25012G22KT P6SM SCT020 OVC040=

USA.gov is the U.S. government's official web portal to all federal, state and local government web resources and services.